Terminal Aerodrome Forecast
Issued by NWS

Home | Current Version | Previous Version | Text Only | Print | Product List | Glossary On
Versions: 1 2 3 4 5 6 7 8 9 10 11 12 13 14 15 16 17 18 19 20 21 22 23 24 25 26 27 28 29 30
438
FTUS44 KLZK 222338
TAFADF
TAF
KADF 222338Z 2300/2324 33007KT P6SM VCSH SCT025 OVC035
     FM230400 33006KT P6SM VCSH BKN020 OVC035
     FM231000 32005KT 6SM BR VCFG OVC015
     FM231400 31007KT P6SM OVC030
     FM231900 31009KT P6SM BKN040=

USA.gov is the U.S. government's official web portal to all federal, state and local government web resources and services.